Pagrindinis puslapis
METAR-TAF:

METAR-TAF

Oro uostai :

Tarptautinis Ženevos oro uostas

Ženeva, Šveicarija

platuma: 46-15N, ilguma: 006-08E, Aukštis: 420 m

Dabartinis oras

Ataskaita buvo paskelbta 14 minutes, ne 02:50 UTC
Vėjas 4 kt iš Pietų
Temperatūra 2°C
Drėgmė 93%
Slėgis 1028 hPa
Matomumas 10 km arba daugiau
nėra debesų žemiau 1500 m ir nėra kamuolinių lietaus debesų

METAR: LSGG 180250Z AUTO 18004KT CAVOK 02/01 Q1028 NOSIG

Laikas: 04:04 (03:04 UTC)

Prognozė

Ataskaita buvo paskelbta 39 minutes, ne 02:25 UTC
Prognozė galioja nuo 18 metu 03 UTC su 19 metu 09 UTC
Vėjas 3 kt nuo kintamojo kryptimis
Matomumas 10 km arba daugiau
Išsisklaidę debesys ne aukštis 4000 ft
Tapsmas
nuo 18 metu 18 UTC su 18 metu 21 UTC
Vėjas 10 kt iš Šiaurės Rytų
Tapsmas
nuo 19 metu 07 UTC su 19 metu 09 UTC
Vėjas 15 kt iš Šiaurės Rytų su gūsio iki 25 kt

TAF: LSGG 180225Z 1803/1909 VRB03KT 9999 SCT040 TX06/1814Z TN00/1806Z TN01/1906Z BECMG 1818/1821 04010KT BECMG 1907/1909 04015G25KT

Orai ataskaitas ir orų prognozės (METAR, TAF).

turimą stotys yra geltonos ir raudonos taškus žemėlapyje.

Perkelti pele per norėdami pamatyti stoties vardą.

Tada spustelėkite, norėdami matyti oro stebėjimo ir prognozės.

Norėdami pakeisti žemėlapį: spustelėkite ant žalios mygtukų su juodo kryžiaus žemyn,; žalią mygtuką su brūkšneliu, jei norite nutolinti; arba žalių rodyklių gretimoms žemėlapius.


METAR-TAF: